sensor_id;sensor_type;location;lat;lon;timestamp;P1;durP1;ratioP1;P2;durP2;ratioP2
72483;SDS011;74199;52.014;5.430;2024-02-15T00:01:01;3.40;;;1.60;;
72483;SDS011;74199;52.014;5.430;2024-02-15T00:03:30;5.85;;;1.90;;
72483;SDS011;74199;52.014;5.430;2024-02-15T00:05:58;5.85;;;1.90;;
72483;SDS011;74199;52.014;5.430;2024-02-15T00:08:25;2.90;;;1.60;;
72483;SDS011;74199;52.014;5.430;2024-02-15T00:10:53;3.90;;;1.85;;
72483;SDS011;74199;52.014;5.430;2024-02-15T00:13:20;3.03;;;1.80;;
72483;SDS011;74199;52.014;5.430;2024-02-15T00:15:49;5.03;;;1.90;;
72483;SDS011;74199;52.014;5.430;2024-02-15T00:18:16;3.78;;;1.65;;
72483;SDS011;74199;52.014;5.430;2024-02-15T00:20:44;4.35;;;1.80;;
72483;SDS011;74199;52.014;5.430;2024-02-15T00:23:11;3.97;;;1.80;;
72483;SDS011;74199;52.014;5.430;2024-02-15T00:25:39;2.95;;;1.63;;
72483;SDS011;74199;52.014;5.430;2024-02-15T00:28:06;3.28;;;1.48;;
72483;SDS011;74199;52.014;5.430;2024-02-15T00:30:33;8.88;;;1.90;;
72483;SDS011;74199;52.014;5.430;2024-02-15T00:33:00;3.90;;;1.75;;
72483;SDS011;74199;52.014;5.430;2024-02-15T00:35:29;3.17;;;1.40;;
72483;SDS011;74199;52.014;5.430;2024-02-15T00:37:57;3.40;;;1.63;;
72483;SDS011;74199;52.014;5.430;2024-02-15T00:40:25;2.55;;;1.73;;
72483;SDS011;74199;52.014;5.430;2024-02-15T00:42:52;3.63;;;1.70;;
72483;SDS011;74199;52.014;5.430;2024-02-15T00:45:19;8.70;;;1.70;;
72483;SDS011;74199;52.014;5.430;2024-02-15T00:47:46;2.65;;;1.30;;
72483;SDS011;74199;52.014;5.430;2024-02-15T00:50:13;3.33;;;1.73;;
72483;SDS011;74199;52.014;5.430;2024-02-15T00:52:40;4.35;;;1.50;;
72483;SDS011;74199;52.014;5.430;2024-02-15T00:55:07;1.88;;;1.42;;
72483;SDS011;74199;52.014;5.430;2024-02-15T00:57:34;4.38;;;1.80;;
72483;SDS011;74199;52.014;5.430;2024-02-15T01:00:04;3.47;;;1.50;;
72483;SDS011;74199;52.014;5.430;2024-02-15T01:02:32;1.95;;;1.50;;
72483;SDS011;74199;52.014;5.430;2024-02-15T01:05:00;4.10;;;1.90;;
72483;SDS011;74199;52.014;5.430;2024-02-15T01:07:27;3.63;;;1.73;;
72483;SDS011;74199;52.014;5.430;2024-02-15T01:09:54;4.25;;;2.22;;
72483;SDS011;74199;52.014;5.430;2024-02-15T01:12:21;5.82;;;2.15;;
72483;SDS011;74199;52.014;5.430;2024-02-15T01:14:48;4.65;;;2.08;;
72483;SDS011;74199;52.014;5.430;2024-02-15T01:17:15;6.82;;;2.40;;
72483;SDS011;74199;52.014;5.430;2024-02-15T01:19:43;3.47;;;1.95;;
72483;SDS011;74199;52.014;5.430;2024-02-15T01:22:11;3.75;;;2.33;;
72483;SDS011;74199;52.014;5.430;2024-02-15T01:24:39;5.07;;;2.40;;
72483;SDS011;74199;52.014;5.430;2024-02-15T01:27:06;2.97;;;2.35;;
72483;SDS011;74199;52.014;5.430;2024-02-15T01:29:33;4.18;;;2.25;;
72483;SDS011;74199;52.014;5.430;2024-02-15T01:32:01;5.78;;;2.15;;
72483;SDS011;74199;52.014;5.430;2024-02-15T01:34:28;4.40;;;2.30;;
72483;SDS011;74199;52.014;5.430;2024-02-15T01:36:56;4.85;;;2.30;;
72483;SDS011;74199;52.014;5.430;2024-02-15T01:39:23;2.45;;;2.05;;
72483;SDS011;74199;52.014;5.430;2024-02-15T01:41:50;5.65;;;2.35;;
72483;SDS011;74199;52.014;5.430;2024-02-15T01:44:18;5.90;;;2.78;;
72483;SDS011;74199;52.014;5.430;2024-02-15T01:46:47;5.65;;;2.20;;
72483;SDS011;74199;52.014;5.430;2024-02-15T01:49:15;5.43;;;2.60;;
72483;SDS011;74199;52.014;5.430;2024-02-15T01:51:43;4.25;;;2.10;;
72483;SDS011;74199;52.014;5.430;2024-02-15T01:54:11;4.22;;;2.50;;
72483;SDS011;74199;52.014;5.430;2024-02-15T01:56:43;4.70;;;2.20;;
72483;SDS011;74199;52.014;5.430;2024-02-15T01:59:13;3.42;;;2.20;;
72483;SDS011;74199;52.014;5.430;2024-02-15T02:01:42;4.20;;;2.50;;
72483;SDS011;74199;52.014;5.430;2024-02-15T02:04:10;2.83;;;2.30;;
72483;SDS011;74199;52.014;5.430;2024-02-15T02:06:37;5.10;;;2.20;;
72483;SDS011;74199;52.014;5.430;2024-02-15T02:09:04;4.07;;;2.35;;
72483;SDS011;74199;52.014;5.430;2024-02-15T02:11:31;4.97;;;2.35;;
72483;SDS011;74199;52.014;5.430;2024-02-15T02:13:59;3.92;;;2.00;;
72483;SDS011;74199;52.014;5.430;2024-02-15T02:18:55;3.50;;;2.00;;
72483;SDS011;74199;52.014;5.430;2024-02-15T02:21:25;4.30;;;2.28;;
72483;SDS011;74199;52.014;5.430;2024-02-15T02:23:55;5.68;;;2.53;;
72483;SDS011;74199;52.014;5.430;2024-02-15T02:26:24;5.88;;;2.38;;
72483;SDS011;74199;52.014;5.430;2024-02-15T02:28:52;4.90;;;2.08;;
72483;SDS011;74199;52.014;5.430;2024-02-15T02:31:20;4.32;;;2.30;;
72483;SDS011;74199;52.014;5.430;2024-02-15T02:33:52;4.72;;;2.20;;
72483;SDS011;74199;52.014;5.430;2024-02-15T02:36:21;5.15;;;2.35;;
72483;SDS011;74199;52.014;5.430;2024-02-15T02:38:48;3.70;;;2.10;;
72483;SDS011;74199;52.014;5.430;2024-02-15T02:41:18;4.25;;;2.17;;
72483;SDS011;74199;52.014;5.430;2024-02-15T02:43:49;5.88;;;2.35;;
72483;SDS011;74199;52.014;5.430;2024-02-15T02:46:16;4.68;;;2.15;;
72483;SDS011;74199;52.014;5.430;2024-02-15T02:48:43;3.78;;;2.00;;
72483;SDS011;74199;52.014;5.430;2024-02-15T02:51:10;3.97;;;2.00;;
72483;SDS011;74199;52.014;5.430;2024-02-15T02:53:37;3.33;;;1.75;;
72483;SDS011;74199;52.014;5.430;2024-02-15T02:56:04;3.50;;;2.30;;
72483;SDS011;74199;52.014;5.430;2024-02-15T02:58:31;5.97;;;2.22;;
72483;SDS011;74199;52.014;5.430;2024-02-15T03:00:59;6.03;;;2.13;;
72483;SDS011;74199;52.014;5.430;2024-02-15T03:03:29;6.60;;;2.35;;
72483;SDS011;74199;52.014;5.430;2024-02-15T03:05:56;5.40;;;1.85;;
72483;SDS011;74199;52.014;5.430;2024-02-15T03:08:24;3.38;;;1.92;;
72483;SDS011;74199;52.014;5.430;2024-02-15T03:10:51;6.13;;;2.00;;
72483;SDS011;74199;52.014;5.430;2024-02-15T03:13:18;6.22;;;2.05;;
72483;SDS011;74199;52.014;5.430;2024-02-15T03:15:45;4.55;;;2.28;;
72483;SDS011;74199;52.014;5.430;2024-02-15T03:18:17;5.53;;;2.20;;
72483;SDS011;74199;52.014;5.430;2024-02-15T03:20:44;5.95;;;2.17;;
72483;SDS011;74199;52.014;5.430;2024-02-15T03:23:11;6.05;;;2.40;;
72483;SDS011;74199;52.014;5.430;2024-02-15T03:25:38;5.30;;;2.15;;
72483;SDS011;74199;52.014;5.430;2024-02-15T03:28:05;5.93;;;2.03;;
72483;SDS011;74199;52.014;5.430;2024-02-15T03:30:32;8.75;;;2.25;;
72483;SDS011;74199;52.014;5.430;2024-02-15T03:33:02;4.88;;;2.08;;
72483;SDS011;74199;52.014;5.430;2024-02-15T03:35:34;4.32;;;1.88;;
72483;SDS011;74199;52.014;5.430;2024-02-15T03:38:01;5.32;;;1.77;;
72483;SDS011;74199;52.014;5.430;2024-02-15T03:40:28;5.65;;;2.13;;
72483;SDS011;74199;52.014;5.430;2024-02-15T03:42:57;7.45;;;2.10;;
72483;SDS011;74199;52.014;5.430;2024-02-15T03:45:24;3.78;;;1.90;;
72483;SDS011;74199;52.014;5.430;2024-02-15T03:47:52;6.93;;;2.47;;
72483;SDS011;74199;52.014;5.430;2024-02-15T03:50:20;3.08;;;1.75;;
72483;SDS011;74199;52.014;5.430;2024-02-15T03:52:48;3.30;;;1.65;;
72483;SDS011;74199;52.014;5.430;2024-02-15T03:55:17;5.68;;;2.00;;
72483;SDS011;74199;52.014;5.430;2024-02-15T03:57:45;5.10;;;1.95;;
72483;SDS011;74199;52.014;5.430;2024-02-15T04:00:13;4.75;;;1.92;;
72483;SDS011;74199;52.014;5.430;2024-02-15T04:02:41;5.03;;;2.20;;
72483;SDS011;74199;52.014;5.430;2024-02-15T04:05:09;3.65;;;1.70;;
72483;SDS011;74199;52.014;5.430;2024-02-15T04:07:39;3.90;;;1.88;;
72483;SDS011;74199;52.014;5.430;2024-02-15T04:10:06;6.97;;;2.20;;
72483;SDS011;74199;52.014;5.430;2024-02-15T04:12:35;4.47;;;1.88;;
72483;SDS011;74199;52.014;5.430;2024-02-15T04:15:03;6.10;;;1.85;;
72483;SDS011;74199;52.014;5.430;2024-02-15T04:17:40;4.10;;;1.85;;
72483;SDS011;74199;52.014;5.430;2024-02-15T04:20:09;5.38;;;1.90;;
72483;SDS011;74199;52.014;5.430;2024-02-15T04:22:38;4.28;;;1.80;;
72483;SDS011;74199;52.014;5.430;2024-02-15T04:25:09;6.15;;;2.00;;
72483;SDS011;74199;52.014;5.430;2024-02-15T04:27:37;4.88;;;1.85;;
72483;SDS011;74199;52.014;5.430;2024-02-15T04:30:04;5.85;;;1.90;;
72483;SDS011;74199;52.014;5.430;2024-02-15T04:32:33;6.65;;;2.20;;
72483;SDS011;74199;52.014;5.430;2024-02-15T04:35:02;6.85;;;2.30;;
72483;SDS011;74199;52.014;5.430;2024-02-15T04:37:30;7.05;;;1.80;;
72483;SDS011;74199;52.014;5.430;2024-02-15T04:39:59;4.35;;;1.83;;
72483;SDS011;74199;52.014;5.430;2024-02-15T04:42:34;6.97;;;1.98;;
72483;SDS011;74199;52.014;5.430;2024-02-15T04:45:03;4.63;;;1.92;;
72483;SDS011;74199;52.014;5.430;2024-02-15T04:47:35;4.15;;;1.67;;
72483;SDS011;74199;52.014;5.430;2024-02-15T04:50:02;6.18;;;1.88;;
72483;SDS011;74199;52.014;5.430;2024-02-15T04:52:32;5.47;;;1.80;;
72483;SDS011;74199;52.014;5.430;2024-02-15T04:54:59;5.13;;;1.77;;
72483;SDS011;74199;52.014;5.430;2024-02-15T04:57:26;3.92;;;1.60;;
72483;SDS011;74199;52.014;5.430;2024-02-15T04:59:56;7.30;;;1.80;;
72483;SDS011;74199;52.014;5.430;2024-02-15T05:02:25;7.60;;;2.10;;
72483;SDS011;74199;52.014;5.430;2024-02-15T05:04:52;5.20;;;1.83;;
72483;SDS011;74199;52.014;5.430;2024-02-15T05:07:23;3.90;;;1.55;;
72483;SDS011;74199;52.014;5.430;2024-02-15T05:09:50;4.35;;;1.60;;
72483;SDS011;74199;52.014;5.430;2024-02-15T05:12:22;3.17;;;1.50;;
72483;SDS011;74199;52.014;5.430;2024-02-15T05:14:52;5.85;;;1.85;;
72483;SDS011;74199;52.014;5.430;2024-02-15T05:17:20;5.18;;;1.65;;
72483;SDS011;74199;52.014;5.430;2024-02-15T05:19:49;5.45;;;1.90;;
72483;SDS011;74199;52.014;5.430;2024-02-15T05:22:16;4.80;;;1.80;;
72483;SDS011;74199;52.014;5.430;2024-02-15T05:24:45;4.25;;;1.50;;
72483;SDS011;74199;52.014;5.430;2024-02-15T05:27:12;3.60;;;1.70;;
72483;SDS011;74199;52.014;5.430;2024-02-15T05:29:39;3.70;;;1.73;;
72483;SDS011;74199;52.014;5.430;2024-02-15T05:32:09;5.28;;;1.73;;
72483;SDS011;74199;52.014;5.430;2024-02-15T05:34:37;4.82;;;1.70;;
72483;SDS011;74199;52.014;5.430;2024-02-15T05:37:06;5.63;;;1.80;;
72483;SDS011;74199;52.014;5.430;2024-02-15T05:39:33;3.80;;;1.70;;
72483;SDS011;74199;52.014;5.430;2024-02-15T05:42:00;7.28;;;1.92;;
72483;SDS011;74199;52.014;5.430;2024-02-15T05:44:28;4.45;;;1.73;;
72483;SDS011;74199;52.014;5.430;2024-02-15T05:46:55;4.35;;;1.58;;
72483;SDS011;74199;52.014;5.430;2024-02-15T05:49:22;5.65;;;1.70;;
72483;SDS011;74199;52.014;5.430;2024-02-15T05:51:51;4.38;;;1.50;;
72483;SDS011;74199;52.014;5.430;2024-02-15T05:54:20;6.18;;;1.95;;
72483;SDS011;74199;52.014;5.430;2024-02-15T05:56:49;4.57;;;1.63;;
72483;SDS011;74199;52.014;5.430;2024-02-15T05:59:19;5.35;;;1.92;;
72483;SDS011;74199;52.014;5.430;2024-02-15T06:01:47;4.15;;;1.70;;
72483;SDS011;74199;52.014;5.430;2024-02-15T06:04:16;6.30;;;1.60;;
72483;SDS011;74199;52.014;5.430;2024-02-15T06:06:43;6.47;;;1.95;;
72483;SDS011;74199;52.014;5.430;2024-02-15T06:09:16;4.10;;;1.60;;
72483;SDS011;74199;52.014;5.430;2024-02-15T06:11:43;5.50;;;1.70;;
72483;SDS011;74199;52.014;5.430;2024-02-15T06:14:12;3.70;;;1.90;;
72483;SDS011;74199;52.014;5.430;2024-02-15T06:16:45;4.30;;;2.05;;
72483;SDS011;74199;52.014;5.430;2024-02-15T06:19:13;2.65;;;1.65;;
72483;SDS011;74199;52.014;5.430;2024-02-15T06:21:41;4.03;;;1.75;;
72483;SDS011;74199;52.014;5.430;2024-02-15T06:24:09;5.15;;;1.95;;
72483;SDS011;74199;52.014;5.430;2024-02-15T06:26:37;5.30;;;1.60;;
72483;SDS011;74199;52.014;5.430;2024-02-15T06:29:04;5.18;;;2.25;;
72483;SDS011;74199;52.014;5.430;2024-02-15T06:31:49;3.33;;;1.58;;
72483;SDS011;74199;52.014;5.430;2024-02-15T06:34:35;5.07;;;1.70;;
72483;SDS011;74199;52.014;5.430;2024-02-15T06:37:37;4.40;;;1.80;;
72483;SDS011;74199;52.014;5.430;2024-02-15T06:40:24;3.13;;;1.48;;
72483;SDS011;74199;52.014;5.430;2024-02-15T06:42:51;7.90;;;3.70;;
72483;SDS011;74199;52.014;5.430;2024-02-15T06:45:18;6.10;;;1.70;;
72483;SDS011;74199;52.014;5.430;2024-02-15T06:47:46;3.22;;;1.30;;
72483;SDS011;74199;52.014;5.430;2024-02-15T06:50:14;3.78;;;1.60;;
72483;SDS011;74199;52.014;5.430;2024-02-15T06:52:42;3.00;;;1.60;;
72483;SDS011;74199;52.014;5.430;2024-02-15T06:55:10;4.63;;;1.90;;
72483;SDS011;74199;52.014;5.430;2024-02-15T06:57:38;2.85;;;1.70;;
72483;SDS011;74199;52.014;5.430;2024-02-15T07:00:09;4.68;;;1.60;;
72483;SDS011;74199;52.014;5.430;2024-02-15T07:02:42;5.10;;;1.80;;
72483;SDS011;74199;52.014;5.430;2024-02-15T07:05:11;8.07;;;1.50;;
72483;SDS011;74199;52.014;5.430;2024-02-15T07:07:38;6.30;;;2.00;;
72483;SDS011;74199;52.014;5.430;2024-02-15T07:10:09;4.10;;;1.80;;
72483;SDS011;74199;52.014;5.430;2024-02-15T07:12:36;7.40;;;2.00;;
72483;SDS011;74199;52.014;5.430;2024-02-15T07:15:04;11.07;;;2.40;;
72483;SDS011;74199;52.014;5.430;2024-02-15T07:17:36;10.38;;;2.78;;
72483;SDS011;74199;52.014;5.430;2024-02-15T07:20:06;8.20;;;2.22;;
72483;SDS011;74199;52.014;5.430;2024-02-15T07:22:36;11.38;;;1.90;;
72483;SDS011;74199;52.014;5.430;2024-02-15T07:25:05;10.25;;;2.25;;
72483;SDS011;74199;52.014;5.430;2024-02-15T07:27:32;6.20;;;1.90;;
72483;SDS011;74199;52.014;5.430;2024-02-15T07:30:01;15.77;;;2.53;;
72483;SDS011;74199;52.014;5.430;2024-02-15T07:32:31;6.57;;;2.03;;
72483;SDS011;74199;52.014;5.430;2024-02-15T07:34:58;4.57;;;1.70;;
72483;SDS011;74199;52.014;5.430;2024-02-15T07:37:25;3.97;;;1.60;;
72483;SDS011;74199;52.014;5.430;2024-02-15T07:39:52;6.43;;;2.03;;
72483;SDS011;74199;52.014;5.430;2024-02-15T07:42:19;6.10;;;1.60;;
72483;SDS011;74199;52.014;5.430;2024-02-15T07:44:46;6.82;;;1.60;;
72483;SDS011;74199;52.014;5.430;2024-02-15T07:47:13;5.28;;;1.55;;
72483;SDS011;74199;52.014;5.430;2024-02-15T07:49:41;4.20;;;1.90;;
72483;SDS011;74199;52.014;5.430;2024-02-15T07:52:08;6.53;;;1.80;;
72483;SDS011;74199;52.014;5.430;2024-02-15T07:54:35;6.32;;;1.83;;
72483;SDS011;74199;52.014;5.430;2024-02-15T07:57:02;6.03;;;1.70;;
72483;SDS011;74199;52.014;5.430;2024-02-15T07:59:30;5.88;;;1.90;;
72483;SDS011;74199;52.014;5.430;2024-02-15T08:01:57;5.75;;;1.85;;
72483;SDS011;74199;52.014;5.430;2024-02-15T08:04:24;6.95;;;1.80;;
72483;SDS011;74199;52.014;5.430;2024-02-15T08:06:51;3.92;;;1.50;;
72483;SDS011;74199;52.014;5.430;2024-02-15T08:09:20;4.80;;;1.40;;
72483;SDS011;74199;52.014;5.430;2024-02-15T08:11:50;5.22;;;1.63;;
72483;SDS011;74199;52.014;5.430;2024-02-15T08:14:18;5.45;;;1.42;;
72483;SDS011;74199;52.014;5.430;2024-02-15T08:16:47;3.72;;;1.55;;
72483;SDS011;74199;52.014;5.430;2024-02-15T08:19:14;4.70;;;1.50;;
72483;SDS011;74199;52.014;5.430;2024-02-15T08:21:41;4.53;;;1.35;;
72483;SDS011;74199;52.014;5.430;2024-02-15T08:24:13;2.70;;;1.23;;
72483;SDS011;74199;52.014;5.430;2024-02-15T08:26:40;3.40;;;1.50;;
72483;SDS011;74199;52.014;5.430;2024-02-15T08:29:09;4.35;;;1.60;;
72483;SDS011;74199;52.014;5.430;2024-02-15T08:31:38;3.40;;;1.48;;
72483;SDS011;74199;52.014;5.430;2024-02-15T08:34:05;4.57;;;1.65;;
72483;SDS011;74199;52.014;5.430;2024-02-15T08:36:33;4.22;;;1.60;;
72483;SDS011;74199;52.014;5.430;2024-02-15T08:39:00;3.97;;;1.50;;
72483;SDS011;74199;52.014;5.430;2024-02-15T08:41:27;3.45;;;1.40;;
72483;SDS011;74199;52.014;5.430;2024-02-15T08:43:55;3.72;;;1.80;;
72483;SDS011;74199;52.014;5.430;2024-02-15T08:46:24;3.83;;;1.30;;
72483;SDS011;74199;52.014;5.430;2024-02-15T08:48:53;3.13;;;1.42;;
72483;SDS011;74199;52.014;5.430;2024-02-15T08:51:20;4.13;;;1.30;;
72483;SDS011;74199;52.014;5.430;2024-02-15T08:53:50;2.92;;;1.63;;
72483;SDS011;74199;52.014;5.430;2024-02-15T08:56:18;2.15;;;1.20;;
72483;SDS011;74199;52.014;5.430;2024-02-15T08:58:45;5.82;;;1.48;;
72483;SDS011;74199;52.014;5.430;2024-02-15T09:01:13;2.83;;;1.50;;
72483;SDS011;74199;52.014;5.430;2024-02-15T09:03:41;3.42;;;1.50;;
72483;SDS011;74199;52.014;5.430;2024-02-15T09:06:11;3.15;;;1.40;;
72483;SDS011;74199;52.014;5.430;2024-02-15T09:08:39;3.65;;;1.25;;
72483;SDS011;74199;52.014;5.430;2024-02-15T09:11:06;2.05;;;1.20;;
72483;SDS011;74199;52.014;5.430;2024-02-15T09:13:38;5.20;;;1.50;;
72483;SDS011;74199;52.014;5.430;2024-02-15T09:16:05;4.50;;;1.50;;
72483;SDS011;74199;52.014;5.430;2024-02-15T09:18:33;2.70;;;1.15;;
72483;SDS011;74199;52.014;5.430;2024-02-15T09:21:00;2.15;;;1.20;;
72483;SDS011;74199;52.014;5.430;2024-02-15T09:23:27;4.43;;;1.58;;
72483;SDS011;74199;52.014;5.430;2024-02-15T09:25:54;1.75;;;1.00;;
72483;SDS011;74199;52.014;5.430;2024-02-15T09:28:21;4.00;;;1.10;;
72483;SDS011;74199;52.014;5.430;2024-02-15T09:30:49;7.13;;;1.90;;
72483;SDS011;74199;52.014;5.430;2024-02-15T09:33:19;2.95;;;1.30;;
72483;SDS011;74199;52.014;5.430;2024-02-15T09:35:47;5.15;;;1.40;;
72483;SDS011;74199;52.014;5.430;2024-02-15T09:38:14;3.28;;;1.50;;
72483;SDS011;74199;52.014;5.430;2024-02-15T09:40:43;5.97;;;1.42;;
72483;SDS011;74199;52.014;5.430;2024-02-15T09:43:11;3.67;;;1.77;;
72483;SDS011;74199;52.014;5.430;2024-02-15T09:45:41;3.53;;;1.38;;
72483;SDS011;74199;52.014;5.430;2024-02-15T09:48:10;4.60;;;1.45;;
72483;SDS011;74199;52.014;5.430;2024-02-15T09:50:40;4.82;;;1.13;;
72483;SDS011;74199;52.014;5.430;2024-02-15T09:53:10;3.63;;;1.48;;
72483;SDS011;74199;52.014;5.430;2024-02-15T09:55:39;4.38;;;1.30;;
72483;SDS011;74199;52.014;5.430;2024-02-15T09:58:13;4.07;;;1.25;;
72483;SDS011;74199;52.014;5.430;2024-02-15T10:00:43;4.88;;;1.15;;
72483;SDS011;74199;52.014;5.430;2024-02-15T10:03:14;5.93;;;1.40;;
72483;SDS011;74199;52.014;5.430;2024-02-15T10:05:50;3.90;;;1.20;;
72483;SDS011;74199;52.014;5.430;2024-02-15T10:08:19;4.07;;;1.20;;
72483;SDS011;74199;52.014;5.430;2024-02-15T10:11:05;6.55;;;1.40;;
72483;SDS011;74199;52.014;5.430;2024-02-15T10:13:36;8.88;;;1.50;;
72483;SDS011;74199;52.014;5.430;2024-02-15T10:16:13;2.47;;;1.20;;
72483;SDS011;74199;52.014;5.430;2024-02-15T10:18:41;2.38;;;1.30;;
72483;SDS011;74199;52.014;5.430;2024-02-15T10:21:09;4.90;;;1.50;;
72483;SDS011;74199;52.014;5.430;2024-02-15T10:23:37;3.38;;;1.30;;
72483;SDS011;74199;52.014;5.430;2024-02-15T10:26:18;1.63;;;1.13;;
72483;SDS011;74199;52.014;5.430;2024-02-15T10:28:59;6.32;;;1.35;;
72483;SDS011;74199;52.014;5.430;2024-02-15T10:31:38;3.95;;;1.13;;
72483;SDS011;74199;52.014;5.430;2024-02-15T10:34:09;3.78;;;1.33;;
72483;SDS011;74199;52.014;5.430;2024-02-15T10:36:40;3.50;;;1.23;;
72483;SDS011;74199;52.014;5.430;2024-02-15T10:39:16;5.45;;;1.50;;
72483;SDS011;74199;52.014;5.430;2024-02-15T10:41:51;3.50;;;1.38;;
72483;SDS011;74199;52.014;5.430;2024-02-15T10:44:21;4.07;;;1.30;;
72483;SDS011;74199;52.014;5.430;2024-02-15T10:46:50;3.10;;;1.33;;
72483;SDS011;74199;52.014;5.430;2024-02-15T10:49:22;4.97;;;1.38;;
72483;SDS011;74199;52.014;5.430;2024-02-15T10:51:54;2.63;;;1.67;;
72483;SDS011;74199;52.014;5.430;2024-02-15T10:55:09;3.03;;;1.17;;
72483;SDS011;74199;52.014;5.430;2024-02-15T10:57:14;3.50;;;1.33;;
72483;SDS011;74199;52.014;5.430;2024-02-15T10:59:55;3.30;;;1.27;;
72483;SDS011;74199;52.014;5.430;2024-02-15T11:02:50;1.98;;;1.10;;
72483;SDS011;74199;52.014;5.430;2024-02-15T11:05:34;4.30;;;1.77;;
72483;SDS011;74199;52.014;5.430;2024-02-15T11:08:09;3.15;;;1.25;;
72483;SDS011;74199;52.014;5.430;2024-02-15T11:10:38;3.17;;;1.60;;
72483;SDS011;74199;52.014;5.430;2024-02-15T11:13:10;2.72;;;1.25;;
72483;SDS011;74199;52.014;5.430;2024-02-15T11:15:41;4.03;;;1.65;;
72483;SDS011;74199;52.014;5.430;2024-02-15T11:18:12;2.78;;;1.00;;
72483;SDS011;74199;52.014;5.430;2024-02-15T11:23:09;1.63;;;1.08;;
72483;SDS011;74199;52.014;5.430;2024-02-15T11:25:41;2.30;;;1.33;;
72483;SDS011;74199;52.014;5.430;2024-02-15T11:30:53;3.10;;;1.30;;
72483;SDS011;74199;52.014;5.430;2024-02-15T11:38:33;1.90;;;1.10;;
72483;SDS011;74199;52.014;5.430;2024-02-15T11:41:01;2.42;;;1.40;;
72483;SDS011;74199;52.014;5.430;2024-02-15T11:46:12;3.33;;;1.40;;
72483;SDS011;74199;52.014;5.430;2024-02-15T11:48:46;3.17;;;1.10;;
72483;SDS011;74199;52.014;5.430;2024-02-15T11:54:01;4.47;;;1.40;;
72483;SDS011;74199;52.014;5.430;2024-02-15T11:56:33;3.00;;;1.10;;
72483;SDS011;74199;52.014;5.430;2024-02-15T11:59:38;3.67;;;1.10;;
72483;SDS011;74199;52.014;5.430;2024-02-15T12:02:19;2.33;;;0.90;;
72483;SDS011;74199;52.014;5.430;2024-02-15T12:05:05;1.83;;;1.00;;
72483;SDS011;74199;52.014;5.430;2024-02-15T12:07:51;2.40;;;1.10;;
72483;SDS011;74199;52.014;5.430;2024-02-15T12:10:37;4.28;;;1.15;;
72483;SDS011;74199;52.014;5.430;2024-02-15T12:13:23;2.88;;;1.40;;
72483;SDS011;74199;52.014;5.430;2024-02-15T12:16:10;4.18;;;1.65;;
72483;SDS011;74199;52.014;5.430;2024-02-15T12:19:00;3.45;;;1.35;;
72483;SDS011;74199;52.014;5.430;2024-02-15T12:21:30;2.33;;;1.30;;
72483;SDS011;74199;52.014;5.430;2024-02-15T12:23:57;3.10;;;1.30;;
72483;SDS011;74199;52.014;5.430;2024-02-15T12:26:24;2.28;;;1.20;;
72483;SDS011;74199;52.014;5.430;2024-02-15T12:28:53;3.72;;;1.25;;
72483;SDS011;74199;52.014;5.430;2024-02-15T12:31:22;4.45;;;1.60;;
72483;SDS011;74199;52.014;5.430;2024-02-15T12:36:34;4.93;;;1.38;;
72483;SDS011;74199;52.014;5.430;2024-02-15T12:39:04;5.55;;;1.58;;
72483;SDS011;74199;52.014;5.430;2024-02-15T12:41:49;3.45;;;1.33;;
72483;SDS011;74199;52.014;5.430;2024-02-15T12:44:17;3.60;;;1.30;;
72483;SDS011;74199;52.014;5.430;2024-02-15T12:46:55;4.32;;;1.17;;
72483;SDS011;74199;52.014;5.430;2024-02-15T12:51:53;3.70;;;1.30;;
72483;SDS011;74199;52.014;5.430;2024-02-15T12:54:40;3.30;;;1.27;;
72483;SDS011;74199;52.014;5.430;2024-02-15T12:57:08;4.22;;;1.20;;
72483;SDS011;74199;52.014;5.430;2024-02-15T12:59:43;4.00;;;1.30;;
72483;SDS011;74199;52.014;5.430;2024-02-15T13:02:10;3.35;;;1.40;;
72483;SDS011;74199;52.014;5.430;2024-02-15T13:04:40;2.97;;;1.35;;
72483;SDS011;74199;52.014;5.430;2024-02-15T13:07:07;2.65;;;1.35;;
72483;SDS011;74199;52.014;5.430;2024-02-15T13:09:35;3.58;;;1.40;;
72483;SDS011;74199;52.014;5.430;2024-02-15T13:12:02;5.88;;;1.40;;
72483;SDS011;74199;52.014;5.430;2024-02-15T13:14:30;3.88;;;1.50;;
72483;SDS011;74199;52.014;5.430;2024-02-15T13:16:57;4.47;;;1.48;;
72483;SDS011;74199;52.014;5.430;2024-02-15T13:19:25;5.15;;;1.67;;
72483;SDS011;74199;52.014;5.430;2024-02-15T13:21:53;4.90;;;1.50;;
72483;SDS011;74199;52.014;5.430;2024-02-15T13:24:23;4.15;;;1.27;;
72483;SDS011;74199;52.014;5.430;2024-02-15T13:26:53;4.80;;;1.38;;
72483;SDS011;74199;52.014;5.430;2024-02-15T13:29:24;4.32;;;1.40;;
72483;SDS011;74199;52.014;5.430;2024-02-15T13:31:51;3.80;;;1.35;;
72483;SDS011;74199;52.014;5.430;2024-02-15T13:34:18;6.07;;;1.45;;
72483;SDS011;74199;52.014;5.430;2024-02-15T13:36:46;6.05;;;1.65;;
72483;SDS011;74199;52.014;5.430;2024-02-15T13:39:13;3.72;;;1.58;;
72483;SDS011;74199;52.014;5.430;2024-02-15T13:41:40;4.22;;;1.60;;
72483;SDS011;74199;52.014;5.430;2024-02-15T13:44:07;3.85;;;1.85;;
72483;SDS011;74199;52.014;5.430;2024-02-15T13:46:34;7.00;;;2.17;;
72483;SDS011;74199;52.014;5.430;2024-02-15T13:49:00;6.55;;;2.08;;
72483;SDS011;74199;52.014;5.430;2024-02-15T13:51:28;4.70;;;2.10;;
72483;SDS011;74199;52.014;5.430;2024-02-15T13:53:55;7.00;;;2.67;;
72483;SDS011;74199;52.014;5.430;2024-02-15T13:56:22;5.47;;;1.88;;
72483;SDS011;74199;52.014;5.430;2024-02-15T13:58:49;3.97;;;1.80;;
72483;SDS011;74199;52.014;5.430;2024-02-15T14:01:16;6.30;;;1.90;;
72483;SDS011;74199;52.014;5.430;2024-02-15T14:03:44;6.38;;;1.65;;
72483;SDS011;74199;52.014;5.430;2024-02-15T14:06:12;3.80;;;1.50;;
72483;SDS011;74199;52.014;5.430;2024-02-15T14:08:41;3.83;;;1.50;;
72483;SDS011;74199;52.014;5.430;2024-02-15T14:11:08;4.65;;;1.52;;
72483;SDS011;74199;52.014;5.430;2024-02-15T14:13:35;5.32;;;1.70;;
72483;SDS011;74199;52.014;5.430;2024-02-15T14:16:02;6.18;;;1.50;;
72483;SDS011;74199;52.014;5.430;2024-02-15T14:18:31;4.40;;;1.40;;
72483;SDS011;74199;52.014;5.430;2024-02-15T14:20:58;4.50;;;1.40;;
72483;SDS011;74199;52.014;5.430;2024-02-15T14:23:28;3.10;;;1.40;;
72483;SDS011;74199;52.014;5.430;2024-02-15T14:25:55;7.25;;;1.58;;
72483;SDS011;74199;52.014;5.430;2024-02-15T14:28:26;5.00;;;1.60;;
72483;SDS011;74199;52.014;5.430;2024-02-15T14:30:53;5.07;;;1.40;;
72483;SDS011;74199;52.014;5.430;2024-02-15T14:33:39;3.47;;;1.83;;
72483;SDS011;74199;52.014;5.430;2024-02-15T14:36:06;5.75;;;1.50;;
72483;SDS011;74199;52.014;5.430;2024-02-15T14:38:33;2.92;;;1.65;;
72483;SDS011;74199;52.014;5.430;2024-02-15T14:41:01;5.00;;;1.67;;
72483;SDS011;74199;52.014;5.430;2024-02-15T14:43:32;4.85;;;1.65;;
72483;SDS011;74199;52.014;5.430;2024-02-15T14:45:59;3.95;;;1.45;;
72483;SDS011;74199;52.014;5.430;2024-02-15T14:48:31;3.80;;;1.30;;
72483;SDS011;74199;52.014;5.430;2024-02-15T14:50:59;8.48;;;1.80;;
72483;SDS011;74199;52.014;5.430;2024-02-15T14:53:26;4.13;;;1.50;;
72483;SDS011;74199;52.014;5.430;2024-02-15T14:55:53;3.40;;;1.30;;
72483;SDS011;74199;52.014;5.430;2024-02-15T14:58:21;5.05;;;1.67;;
72483;SDS011;74199;52.014;5.430;2024-02-15T15:00:49;4.35;;;1.48;;
72483;SDS011;74199;52.014;5.430;2024-02-15T15:03:16;4.82;;;1.40;;
72483;SDS011;74199;52.014;5.430;2024-02-15T15:05:44;4.10;;;1.30;;
72483;SDS011;74199;52.014;5.430;2024-02-15T15:08:37;2.88;;;1.20;;
72483;SDS011;74199;52.014;5.430;2024-02-15T15:11:23;4.82;;;1.45;;
72483;SDS011;74199;52.014;5.430;2024-02-15T15:14:29;3.20;;;1.38;;
72483;SDS011;74199;52.014;5.430;2024-02-15T15:16:56;8.40;;;1.50;;
72483;SDS011;74199;52.014;5.430;2024-02-15T15:19:23;4.55;;;1.50;;
72483;SDS011;74199;52.014;5.430;2024-02-15T15:21:50;3.55;;;1.17;;
72483;SDS011;74199;52.014;5.430;2024-02-15T15:24:17;5.85;;;1.60;;
72483;SDS011;74199;52.014;5.430;2024-02-15T15:26:44;4.78;;;1.40;;